createdAt,value
2018-05-31T00:01:25.969Z,25.60
2018-05-31T00:03:53.393Z,17.60
2018-05-31T00:06:21.720Z,27.40
2018-05-31T00:08:49.139Z,20.33
2018-05-31T00:11:16.568Z,21.73
2018-05-31T00:13:43.984Z,26.35
2018-05-31T00:16:11.413Z,27.27
2018-05-31T00:18:38.832Z,27.10
2018-05-31T00:21:06.255Z,19.45
2018-05-31T00:23:33.672Z,19.98
2018-05-31T00:26:01.097Z,22.10
2018-05-31T00:28:28.523Z,23.35
2018-05-31T00:30:55.957Z,21.83
2018-05-31T00:33:23.372Z,21.73
2018-05-31T00:35:50.806Z,21.25
2018-05-31T00:38:18.229Z,19.30
2018-05-31T00:40:45.651Z,18.80
2018-05-31T00:43:13.068Z,22.50
2018-05-31T00:45:40.501Z,28.67
2018-05-31T00:48:07.925Z,28.42
2018-05-31T00:50:35.353Z,21.45
2018-05-31T00:53:02.772Z,22.75
2018-05-31T00:55:41.989Z,22.52
2018-05-31T00:58:09.404Z,20.40
2018-05-31T01:00:36.823Z,27.42
2018-05-31T01:03:04.240Z,21.40
2018-05-31T01:05:31.675Z,25.02
2018-05-31T01:07:59.087Z,25.02
2018-05-31T01:10:26.517Z,19.87
2018-05-31T01:12:53.943Z,31.73
2018-05-31T01:15:21.368Z,36.05
2018-05-31T01:17:48.780Z,23.35
2018-05-31T01:20:16.206Z,26.90
2018-05-31T01:22:43.624Z,22.27
2018-05-31T01:25:11.049Z,25.27
2018-05-31T01:27:38.471Z,22.95
2018-05-31T01:30:05.900Z,20.62
2018-05-31T01:32:33.312Z,20.40
2018-05-31T01:35:00.724Z,19.52
2018-05-31T01:37:28.147Z,22.13
2018-05-31T01:39:55.577Z,26.00
2018-05-31T01:42:22.997Z,24.42
2018-05-31T01:44:50.409Z,20.95
2018-05-31T01:47:17.830Z,25.15
2018-05-31T01:49:45.245Z,24.45
2018-05-31T01:52:12.673Z,25.23
2018-05-31T01:54:40.093Z,22.75
2018-05-31T01:57:07.526Z,20.35
2018-05-31T01:59:34.944Z,28.23
2018-05-31T02:02:02.371Z,17.45
2018-05-31T02:04:29.786Z,23.85
2018-05-31T02:06:57.217Z,24.02
2018-05-31T02:09:24.637Z,19.65
2018-05-31T02:11:52.065Z,24.12
2018-05-31T02:14:19.484Z,19.90
2018-05-31T02:16:46.908Z,21.02
2018-05-31T02:19:14.323Z,20.83
2018-05-31T02:21:41.747Z,22.20
2018-05-31T02:24:09.160Z,23.20
2018-05-31T02:26:36.587Z,24.52
2018-05-31T02:29:04.004Z,24.95
2018-05-31T02:31:31.430Z,24.50
2018-05-31T02:33:58.851Z,24.52
2018-05-31T02:36:26.277Z,23.62
2018-05-31T02:38:53.693Z,33.60
2018-05-31T02:41:21.116Z,27.45
2018-05-31T02:43:48.528Z,21.25
2018-05-31T02:46:15.952Z,22.85
2018-05-31T02:48:43.367Z,27.70
2018-05-31T02:51:10.792Z,26.80
2018-05-31T02:53:38.212Z,23.08
2018-05-31T02:56:05.641Z,29.40
2018-05-31T02:58:33.052Z,23.25
2018-05-31T03:01:00.469Z,21.37
2018-05-31T03:03:27.897Z,26.52
2018-05-31T03:05:55.320Z,33.00
2018-05-31T03:08:22.737Z,31.87
2018-05-31T03:10:50.160Z,25.52
2018-05-31T03:13:17.580Z,22.50
2018-05-31T03:15:45.006Z,21.42
2018-05-31T03:18:12.505Z,20.88
2018-05-31T03:20:39.923Z,13.70
2018-05-31T03:23:07.349Z,30.98
2018-05-31T03:25:34.771Z,21.55
2018-05-31T03:28:02.197Z,21.33
2018-05-31T03:30:29.609Z,23.62
2018-05-31T03:32:57.047Z,24.98
2018-05-31T03:35:24.457Z,28.85
2018-05-31T03:37:51.889Z,30.05
2018-05-31T03:40:19.308Z,23.62
2018-05-31T03:42:46.740Z,28.23
2018-05-31T03:45:14.161Z,20.98
2018-05-31T03:47:41.580Z,22.42
2018-05-31T03:50:09.006Z,21.15
2018-05-31T03:52:36.424Z,19.95
2018-05-31T03:55:03.845Z,20.02
2018-05-31T03:57:31.317Z,19.85
2018-05-31T03:59:58.728Z,20.75
2018-05-31T04:02:26.144Z,30.50
2018-05-31T04:04:53.560Z,25.08
2018-05-31T04:07:20.993Z,27.73
2018-05-31T04:09:48.401Z,27.62
2018-05-31T04:12:15.841Z,21.37
2018-05-31T04:14:43.264Z,26.90
2018-05-31T04:17:10.688Z,19.92
2018-05-31T04:19:38.117Z,29.52
2018-05-31T04:22:05.549Z,30.67
2018-05-31T04:24:32.968Z,21.85
2018-05-31T04:27:00.396Z,22.40
2018-05-31T04:29:27.820Z,22.70
2018-05-31T04:31:55.256Z,22.90
2018-05-31T04:34:22.672Z,22.15
2018-05-31T04:36:50.104Z,18.20
2018-05-31T04:39:17.521Z,20.50
2018-05-31T04:41:44.944Z,22.67
2018-05-31T04:44:12.364Z,18.50
2018-05-31T04:46:39.806Z,21.95
2018-05-31T04:49:07.222Z,22.90
2018-05-31T04:51:34.900Z,18.02
2018-05-31T04:54:02.311Z,19.75
2018-05-31T04:56:29.732Z,18.08
2018-05-31T04:58:57.164Z,19.15
2018-05-31T05:01:24.582Z,17.30
2018-05-31T05:03:52.007Z,23.90
2018-05-31T05:06:19.449Z,21.45
2018-05-31T05:08:46.875Z,36.45
2018-05-31T05:11:14.293Z,21.73
2018-05-31T05:13:41.723Z,19.25
2018-05-31T05:16:09.137Z,30.73
2018-05-31T05:18:36.574Z,19.10
2018-05-31T05:21:03.988Z,22.08
2018-05-31T05:23:31.423Z,21.45
2018-05-31T05:25:58.841Z,19.08
2018-05-31T05:28:26.264Z,19.75
2018-05-31T05:30:53.680Z,27.83
2018-05-31T05:33:21.104Z,19.33
2018-05-31T05:35:48.524Z,24.60
2018-05-31T05:38:15.966Z,24.15
2018-05-31T05:40:43.384Z,25.12
2018-05-31T05:43:10.808Z,27.02
2018-05-31T05:45:38.220Z,23.10
2018-05-31T05:48:05.640Z,29.77
2018-05-31T05:50:33.052Z,24.05
2018-05-31T05:53:00.476Z,21.00
2018-05-31T05:55:27.894Z,16.40
2018-05-31T05:57:55.319Z,19.85
2018-05-31T06:00:22.735Z,26.70
2018-05-31T06:02:50.155Z,29.17
2018-05-31T06:05:17.572Z,33.22
2018-05-31T06:07:45.000Z,22.90
2018-05-31T06:10:12.429Z,19.83
2018-05-31T06:12:39.832Z,36.05
2018-05-31T06:15:07.252Z,26.80
2018-05-31T06:17:34.669Z,28.67
2018-05-31T06:20:02.103Z,34.60
2018-05-31T06:22:29.530Z,27.52
2018-05-31T06:24:56.960Z,24.48
2018-05-31T06:27:24.371Z,30.25
2018-05-31T06:29:51.809Z,31.35
2018-05-31T06:32:19.224Z,39.00
2018-05-31T06:34:46.652Z,23.73
2018-05-31T06:37:14.147Z,39.03
2018-05-31T06:39:41.516Z,34.15
2018-05-31T06:42:08.937Z,30.62
2018-05-31T06:44:36.365Z,30.00
2018-05-31T06:47:03.781Z,42.00
2018-05-31T06:49:31.215Z,33.33
2018-05-31T06:51:58.629Z,36.90
2018-05-31T06:54:26.084Z,36.10
2018-05-31T06:56:53.469Z,41.65
2018-05-31T06:59:20.901Z,48.90
2018-05-31T07:01:48.329Z,48.85
2018-05-31T07:04:15.749Z,44.60
2018-05-31T07:06:43.172Z,43.80
2018-05-31T07:09:10.598Z,51.50
2018-05-31T07:11:38.011Z,36.63
2018-05-31T07:14:05.424Z,56.75
2018-05-31T07:16:32.857Z,56.03
2018-05-31T07:19:00.281Z,61.90
2018-05-31T07:21:27.707Z,74.32
2018-05-31T07:23:55.129Z,56.97
2018-05-31T07:26:22.553Z,72.95
2018-05-31T07:28:49.976Z,58.22
2018-05-31T07:31:17.400Z,45.30
2018-05-31T07:33:44.830Z,47.22
2018-05-31T07:36:12.287Z,62.10
2018-05-31T07:38:39.689Z,59.30
2018-05-31T07:41:07.103Z,46.03
2018-05-31T07:43:34.520Z,53.25
2018-05-31T07:46:01.937Z,52.30
2018-05-31T07:48:29.353Z,52.60
2018-05-31T07:50:56.781Z,59.10
2018-05-31T07:53:24.192Z,43.42
2018-05-31T07:55:51.628Z,68.12
2018-05-31T07:58:19.062Z,55.83
2018-05-31T08:00:46.465Z,65.82
2018-05-31T08:03:13.899Z,50.92
2018-05-31T08:05:41.348Z,55.72
2018-05-31T08:08:08.748Z,50.80
2018-05-31T08:10:36.176Z,45.97
2018-05-31T08:13:03.596Z,67.40
2018-05-31T08:15:31.020Z,78.68
2018-05-31T08:17:58.442Z,81.18
2018-05-31T08:20:25.862Z,67.40
2018-05-31T08:22:53.280Z,76.87
2018-05-31T08:25:20.707Z,82.43
2018-05-31T08:27:48.129Z,52.35
2018-05-31T08:30:15.554Z,71.10
2018-05-31T08:32:42.968Z,59.13
2018-05-31T08:35:10.398Z,61.28
2018-05-31T08:37:37.807Z,88.68
2018-05-31T08:40:05.237Z,68.68
2018-05-31T08:42:32.651Z,73.78
2018-05-31T08:45:00.081Z,83.05
2018-05-31T08:47:27.505Z,90.30
2018-05-31T08:49:54.936Z,74.05
2018-05-31T08:52:22.352Z,89.62
2018-05-31T08:54:49.782Z,89.28
2018-05-31T08:57:17.209Z,78.10
2018-05-31T08:59:44.634Z,85.18
2018-05-31T09:02:12.059Z,103.07
2018-05-31T09:04:39.488Z,90.15
2018-05-31T09:07:06.909Z,99.70
2018-05-31T09:09:34.394Z,110.47
2018-05-31T09:12:01.817Z,108.68
2018-05-31T09:14:29.261Z,84.13
2018-05-31T09:16:56.696Z,131.65
2018-05-31T09:19:24.134Z,105.75
2018-05-31T09:21:51.577Z,155.60
2018-05-31T09:24:19.008Z,135.37
2018-05-31T09:26:46.444Z,116.50
2018-05-31T09:29:13.880Z,119.47
2018-05-31T09:31:41.300Z,133.33
2018-05-31T09:34:08.728Z,119.67
2018-05-31T09:36:36.156Z,81.87
2018-05-31T09:39:03.577Z,128.50
2018-05-31T09:41:31.005Z,93.77
2018-05-31T09:43:58.422Z,102.80
2018-05-31T09:46:25.861Z,117.23
2018-05-31T09:48:53.289Z,117.67
2018-05-31T09:51:20.721Z,117.50
2018-05-31T09:53:48.148Z,124.20
2018-05-31T09:56:15.585Z,104.50
2018-05-31T09:58:43.001Z,110.70
2018-05-31T10:01:10.441Z,117.33
2018-05-31T10:03:37.860Z,100.10
2018-05-31T10:06:05.295Z,114.93
2018-05-31T10:08:32.712Z,101.87
2018-05-31T10:11:00.149Z,104.43
2018-05-31T10:13:27.563Z,95.80
2018-05-31T10:15:55.006Z,122.60
2018-05-31T10:18:22.421Z,88.83
2018-05-31T10:20:49.862Z,122.43
2018-05-31T10:23:17.290Z,164.43
2018-05-31T10:25:44.713Z,141.73
2018-05-31T10:28:12.141Z,135.03
2018-05-31T10:30:39.568Z,128.10
2018-05-31T10:33:06.988Z,129.43
2018-05-31T10:35:34.416Z,115.10
2018-05-31T10:38:01.857Z,120.70
2018-05-31T10:40:29.276Z,145.40
2018-05-31T10:42:56.700Z,109.43
2018-05-31T10:45:24.141Z,169.80
2018-05-31T10:47:51.561Z,169.80
2018-05-31T10:50:18.995Z,126.40
2018-05-31T10:52:46.420Z,157.40
2018-05-31T10:55:13.849Z,106.20
2018-05-31T10:57:41.281Z,116.60
2018-05-31T11:00:08.717Z,146.77
2018-05-31T11:02:36.148Z,121.70
2018-05-31T11:05:03.570Z,108.97
2018-05-31T11:07:31.006Z,114.10
2018-05-31T11:09:58.416Z,101.93
2018-05-31T11:12:25.861Z,137.57
2018-05-31T11:14:53.303Z,114.43
2018-05-31T11:17:20.712Z,116.40
2018-05-31T11:19:48.132Z,151.73
2018-05-31T11:22:15.569Z,145.40
2018-05-31T11:24:42.988Z,127.97
2018-05-31T11:27:10.427Z,124.77
2018-05-31T11:29:37.835Z,91.53
2018-05-31T11:32:05.279Z,120.77
2018-05-31T11:34:32.680Z,97.57
2018-05-31T11:37:00.108Z,141.80
2018-05-31T11:39:27.536Z,152.77
2018-05-31T11:41:54.972Z,171.43
2018-05-31T11:44:22.388Z,160.23
2018-05-31T11:46:49.821Z,146.97
2018-05-31T11:49:17.256Z,133.97
2018-05-31T11:51:44.680Z,131.47
2018-05-31T11:54:12.105Z,148.80
2018-05-31T11:56:39.541Z,132.27
2018-05-31T11:59:06.975Z,150.97
2018-05-31T12:01:35.237Z,175.67
2018-05-31T12:04:02.669Z,175.73
2018-05-31T12:06:30.124Z,170.57
2018-05-31T12:08:57.527Z,181.03
2018-05-31T12:11:24.987Z,226.83
2018-05-31T12:13:52.409Z,162.67
2018-05-31T12:16:19.840Z,158.80
2018-05-31T12:18:47.260Z,132.60
2018-05-31T12:21:14.701Z,193.77
2018-05-31T12:23:42.123Z,154.93
2018-05-31T12:26:09.551Z,133.73
2018-05-31T12:28:36.976Z,129.20
2018-05-31T12:31:04.400Z,137.57
2018-05-31T12:33:31.824Z,118.43
2018-05-31T12:35:59.269Z,144.50
2018-05-31T12:38:26.707Z,109.63
2018-05-31T12:40:54.137Z,108.93
2018-05-31T12:43:21.564Z,120.13
2018-05-31T12:45:48.972Z,93.10
2018-05-31T12:48:16.400Z,125.13
2018-05-31T12:50:43.831Z,147.00
2018-05-31T12:53:11.255Z,183.50
2018-05-31T12:55:38.678Z,90.77
2018-05-31T12:58:06.116Z,122.37
2018-05-31T13:00:33.536Z,185.47
2018-05-31T13:03:00.989Z,132.53
2018-05-31T13:05:28.564Z,153.47
2018-05-31T13:07:56.020Z,150.20
2018-05-31T13:10:23.441Z,131.07
2018-05-31T13:12:50.872Z,131.57
2018-05-31T13:15:18.302Z,146.97
2018-05-31T13:17:45.731Z,126.07
2018-05-31T13:20:13.160Z,162.97
2018-05-31T13:22:40.589Z,97.90
2018-05-31T13:25:08.018Z,139.73
2018-05-31T13:27:35.458Z,109.70
2018-05-31T13:30:02.881Z,120.00
2018-05-31T13:32:30.311Z,135.87
2018-05-31T13:34:57.735Z,124.20
2018-05-31T13:37:25.177Z,126.00
2018-05-31T13:39:52.604Z,108.47
2018-05-31T13:42:20.032Z,109.23
2018-05-31T13:44:47.469Z,150.90
2018-05-31T13:47:14.904Z,117.87
2018-05-31T13:49:42.329Z,131.63
2018-05-31T13:52:09.760Z,115.90
2018-05-31T13:54:37.223Z,126.57
2018-05-31T13:57:04.652Z,102.00
2018-05-31T13:59:32.076Z,130.57
2018-05-31T14:01:59.503Z,85.33
2018-05-31T14:04:26.918Z,90.33
2018-05-31T14:06:54.335Z,92.33
2018-05-31T14:09:21.755Z,70.17
2018-05-31T14:11:49.168Z,96.53
2018-05-31T14:14:16.580Z,92.03
2018-05-31T14:16:44.008Z,111.87
2018-05-31T14:19:11.424Z,95.00
2018-05-31T14:21:38.843Z,108.03
2018-05-31T14:24:06.265Z,86.13
2018-05-31T14:26:33.687Z,116.67
2018-05-31T14:29:01.115Z,92.07
2018-05-31T14:31:28.534Z,92.47
2018-05-31T14:33:55.960Z,94.90
2018-05-31T14:36:23.369Z,126.90
2018-05-31T14:38:50.804Z,132.00
2018-05-31T14:41:18.225Z,101.47
2018-05-31T14:43:45.662Z,111.37
2018-05-31T14:46:13.081Z,119.43
2018-05-31T14:48:40.508Z,108.73
2018-05-31T14:51:07.930Z,117.87
2018-05-31T14:53:35.361Z,105.37
2018-05-31T14:56:02.786Z,97.03
2018-05-31T14:58:30.213Z,104.93
2018-05-31T15:00:57.631Z,98.53
2018-05-31T15:03:25.048Z,90.80
2018-05-31T15:05:52.469Z,76.53
2018-05-31T15:08:19.901Z,100.30
2018-05-31T15:10:47.309Z,95.93
2018-05-31T15:13:14.742Z,103.90
2018-05-31T15:15:42.175Z,141.30
2018-05-31T15:18:09.597Z,95.77
2018-05-31T15:20:37.024Z,110.90
2018-05-31T15:23:04.448Z,99.83
2018-05-31T15:25:31.867Z,93.03
2018-05-31T15:27:59.280Z,86.40
2018-05-31T15:30:26.792Z,77.00
2018-05-31T15:32:54.216Z,78.67
2018-05-31T15:35:21.634Z,68.20
2018-05-31T15:37:49.055Z,93.97
2018-05-31T15:40:16.472Z,93.00
2018-05-31T15:42:43.913Z,76.78
2018-05-31T15:45:11.328Z,69.30
2018-05-31T15:47:38.768Z,76.40
2018-05-31T15:50:06.197Z,85.07
2018-05-31T15:52:33.623Z,76.18
2018-05-31T15:55:01.052Z,85.90
2018-05-31T15:57:28.481Z,69.90
2018-05-31T15:59:55.908Z,69.47
2018-05-31T16:02:23.332Z,95.60
2018-05-31T16:04:50.777Z,85.28
2018-05-31T16:07:18.220Z,72.62
2018-05-31T16:09:45.650Z,59.88
2018-05-31T16:12:13.072Z,46.90
2018-05-31T16:14:40.508Z,58.53
2018-05-31T16:17:17.856Z,43.05
2018-05-31T16:19:45.408Z,64.47
2018-05-31T16:22:12.833Z,52.53
2018-05-31T16:24:40.265Z,52.65
2018-05-31T16:27:07.696Z,104.30
2018-05-31T16:29:35.144Z,78.37
2018-05-31T16:32:02.560Z,87.90
2018-05-31T16:34:29.990Z,80.70
2018-05-31T16:36:57.408Z,80.50
2018-05-31T16:39:24.843Z,75.18
2018-05-31T16:41:52.368Z,89.93
2018-05-31T16:44:19.792Z,61.22
2018-05-31T16:46:47.274Z,69.10
2018-05-31T16:49:14.735Z,97.78
2018-05-31T16:51:42.220Z,90.82
2018-05-31T16:54:09.648Z,71.70
2018-05-31T16:56:37.072Z,58.78
2018-05-31T16:59:04.559Z,83.30
2018-05-31T17:01:31.979Z,91.90
2018-05-31T17:03:59.396Z,71.60
2018-05-31T17:06:26.817Z,107.15
2018-05-31T17:08:54.282Z,86.10
2018-05-31T17:11:21.699Z,90.20
2018-05-31T17:13:49.187Z,86.70
2018-05-31T17:16:16.609Z,83.78
2018-05-31T17:18:44.037Z,60.20
2018-05-31T17:21:11.553Z,89.95
2018-05-31T17:23:39.012Z,60.30
2018-05-31T17:26:06.436Z,62.72
2018-05-31T17:28:33.865Z,69.37
2018-05-31T17:31:01.279Z,62.78
2018-05-31T17:33:28.703Z,64.32
2018-05-31T17:35:56.186Z,76.68
2018-05-31T17:38:23.603Z,70.72
2018-05-31T17:40:51.102Z,54.65
2018-05-31T17:43:18.503Z,65.97
2018-05-31T17:45:45.929Z,63.53
2018-05-31T17:48:13.340Z,61.25
2018-05-31T17:50:40.768Z,74.05
2018-05-31T17:53:08.197Z,60.42
2018-05-31T17:55:35.639Z,76.10
2018-05-31T17:58:03.048Z,53.10
2018-05-31T18:00:30.469Z,56.05
2018-05-31T18:02:57.895Z,52.40
2018-05-31T18:05:25.315Z,45.85
2018-05-31T18:07:52.747Z,51.33
2018-05-31T18:10:20.170Z,49.35
2018-05-31T18:12:47.589Z,44.65
2018-05-31T18:15:15.025Z,46.25
2018-05-31T18:17:42.437Z,43.13
2018-05-31T18:20:09.875Z,39.75
2018-05-31T18:22:37.289Z,55.58
2018-05-31T18:25:04.713Z,50.47
2018-05-31T18:27:32.176Z,45.40
2018-05-31T18:29:59.561Z,40.58
2018-05-31T18:32:26.975Z,43.63
2018-05-31T18:34:54.409Z,30.95
2018-05-31T18:37:22.700Z,41.78
2018-05-31T18:39:50.184Z,39.42
2018-05-31T18:42:17.624Z,59.78
2018-05-31T18:44:45.128Z,41.50
2018-05-31T18:47:12.563Z,61.37
2018-05-31T18:49:40.039Z,57.50
2018-05-31T18:52:09.380Z,44.20
2018-05-31T18:54:36.799Z,63.45
2018-05-31T18:57:04.888Z,44.63
2018-05-31T18:59:32.321Z,44.60
2018-05-31T19:01:59.737Z,46.05
2018-05-31T19:04:27.156Z,57.67
2018-05-31T19:06:54.593Z,34.97
2018-05-31T19:09:27.574Z,62.13
2018-05-31T19:11:55.021Z,42.05
2018-05-31T19:14:22.437Z,41.25
2018-05-31T19:16:49.869Z,47.38
2018-05-31T19:19:22.851Z,45.65
2018-05-31T19:21:50.296Z,33.35
2018-05-31T19:24:23.465Z,39.50
2018-05-31T19:26:50.905Z,46.30
2018-05-31T19:29:18.350Z,32.30
2018-05-31T19:31:45.757Z,46.42
2018-05-31T19:34:13.176Z,60.92
2018-05-31T19:36:46.245Z,56.65
2018-05-31T19:39:13.669Z,52.38
2018-05-31T19:41:41.095Z,43.80
2018-05-31T19:44:14.221Z,32.30
2018-05-31T19:46:41.649Z,49.75
2018-05-31T19:49:09.072Z,42.90
2018-05-31T19:54:40.761Z,46.58
2018-05-31T19:57:08.188Z,43.90
2018-05-31T20:02:44.395Z,48.00
2018-05-31T20:05:11.816Z,30.12
2018-05-31T20:07:39.277Z,42.47
2018-05-31T20:10:06.659Z,39.22
2018-05-31T20:12:34.089Z,52.88
2018-05-31T20:15:01.533Z,34.65
2018-05-31T20:17:28.943Z,44.67
2018-05-31T20:19:56.357Z,40.47
2018-05-31T20:22:23.797Z,30.15
2018-05-31T20:24:51.232Z,27.45
2018-05-31T20:27:18.656Z,31.70
2018-05-31T20:29:46.075Z,31.58
2018-05-31T20:32:13.504Z,26.62
2018-05-31T20:34:40.924Z,28.70
2018-05-31T20:37:08.347Z,38.13
2018-05-31T20:39:35.761Z,34.50
2018-05-31T20:42:03.184Z,32.67
2018-05-31T20:44:30.613Z,24.45
2018-05-31T20:46:58.032Z,29.50
2018-05-31T20:49:25.486Z,27.92
2018-05-31T20:51:52.882Z,26.15
2018-05-31T20:54:20.313Z,31.48
2018-05-31T20:56:47.737Z,28.70
2018-05-31T20:59:15.158Z,35.90
2018-05-31T21:01:42.580Z,40.12
2018-05-31T21:04:10.001Z,36.65
2018-05-31T21:06:37.436Z,37.38
2018-05-31T21:09:05.557Z,29.67
2018-05-31T21:11:32.981Z,29.98
2018-05-31T21:14:00.392Z,24.23
2018-05-31T21:16:27.816Z,24.87
2018-05-31T21:18:55.233Z,27.20
2018-05-31T21:21:22.672Z,25.77
2018-05-31T21:23:50.085Z,33.58
2018-05-31T21:26:17.516Z,26.02
2018-05-31T21:28:44.931Z,19.83
2018-05-31T21:31:12.357Z,18.33
2018-05-31T21:33:39.772Z,29.08
2018-05-31T21:36:07.200Z,24.60
2018-05-31T21:38:34.613Z,20.62
2018-05-31T21:41:02.055Z,20.15
2018-05-31T21:43:29.482Z,21.65
2018-05-31T21:45:56.892Z,18.10
2018-05-31T21:48:24.320Z,19.87
2018-05-31T21:50:51.737Z,19.70
2018-05-31T21:53:19.179Z,20.73
2018-05-31T21:55:46.591Z,17.75
2018-05-31T21:58:14.017Z,19.40
2018-05-31T22:01:02.136Z,18.92
2018-05-31T22:03:29.562Z,18.02
2018-05-31T22:05:56.997Z,18.98
2018-05-31T22:08:24.419Z,18.80
2018-05-31T22:10:51.832Z,17.85
2018-05-31T22:13:19.260Z,20.88
2018-05-31T22:15:46.676Z,19.80
2018-05-31T22:18:14.101Z,23.92
2018-05-31T22:20:41.508Z,21.12
2018-05-31T22:23:08.936Z,16.25
2018-05-31T22:25:36.357Z,21.12
2018-05-31T22:28:03.776Z,18.77
2018-05-31T22:30:31.200Z,19.15
2018-05-31T22:32:58.633Z,15.02
2018-05-31T22:35:26.045Z,16.58
2018-05-31T22:37:54.364Z,12.95
2018-05-31T22:40:21.777Z,14.68
2018-05-31T22:42:49.209Z,16.90
2018-05-31T22:45:16.630Z,11.93
2018-05-31T22:47:44.056Z,16.35
2018-05-31T22:50:11.471Z,12.57
2018-05-31T22:52:38.906Z,19.10
2018-05-31T22:55:06.312Z,12.65
2018-05-31T22:57:33.745Z,18.27
2018-05-31T23:00:01.161Z,10.07
2018-05-31T23:02:28.585Z,14.10
2018-05-31T23:04:55.999Z,7.35
2018-05-31T23:07:23.424Z,17.85
2018-05-31T23:09:50.845Z,12.93
2018-05-31T23:12:18.289Z,13.30
2018-05-31T23:14:45.694Z,7.85
2018-05-31T23:17:13.117Z,14.38
2018-05-31T23:19:40.540Z,13.95
2018-05-31T23:22:07.986Z,16.00
2018-05-31T23:24:35.405Z,12.88
2018-05-31T23:27:02.825Z,10.38
2018-05-31T23:29:30.264Z,9.90
2018-05-31T23:31:57.692Z,13.75
2018-05-31T23:34:25.112Z,13.52
2018-05-31T23:36:52.521Z,11.60
2018-05-31T23:39:19.946Z,12.80
2018-05-31T23:41:47.365Z,12.75
2018-05-31T23:44:14.791Z,17.42
2018-05-31T23:46:42.212Z,10.65
2018-05-31T23:49:09.645Z,14.05
2018-05-31T23:51:37.053Z,9.52
2018-05-31T23:54:04.506Z,13.30
2018-05-31T23:56:31.920Z,13.60
2018-05-31T23:58:59.347Z,15.48
